Time;durP1;ratioP1;P1;durP2;ratioP2;P2;SDS_P1;SDS_P2;PMS_P1;PMS_P2;Temp;Humidity;BMP_temperature;BMP_pressure;BME280_temperature;BME280_humidity;BME280_pressure;Samples;Min_cycle;Max_cycle;Signal;HPM_P1;HPM_P2
2022/11/17 00:01:35;;;;;;;;;;;;;;;7.84;100.00;98939.19;5591074;31;34234;-75
2022/11/17 00:04:43;;;;;;;;;;;;;;;7.84;100.00;98931.25;5590973;31;34876;-74
2022/11/17 00:07:50;;;;;;;;;;;;;;;7.86;100.00;98929.25;5591100;31;34767;-74
2022/11/17 00:11:01;;;;;;;;;;;;;;;7.83;100.00;98929.62;5590861;31;34354;-75
2022/11/17 00:17:34;;;;;;;;;;;;;;;7.71;100.00;98931.91;5590942;31;34482;-75
2022/11/17 00:24:09;;;;;;;;;;;;;;;7.75;100.00;98935.00;5590641;31;34754;-75
2022/11/17 00:27:16;;;;;;;;;;;;;;;7.76;100.00;98929.53;5590813;31;34875;-76
2022/11/17 00:34:03;;;;;;;;;;;;;;;7.63;100.00;98932.03;5575748;31;34656;-75
2022/11/17 00:37:12;;;;;;;;;;;;;;;7.61;100.00;98933.19;5576476;31;34521;-75
2022/11/17 00:40:23;;;;;;;;;;;;;;;7.56;100.00;98941.66;5590627;31;34875;-76
2022/11/17 00:43:32;;;;;;;;;;;;;;;7.55;100.00;98936.59;5590524;31;34724;-75
2022/11/17 00:46:41;;;;;;;;;;;;;;;7.58;100.00;98938.84;5590591;31;34380;-75
2022/11/17 00:49:53;;;;;;;;;;;;;;;7.56;100.00;98927.63;5589470;31;35166;-75
2022/11/17 00:53:01;;;;;;;;;;;;;;;7.47;100.00;98931.38;5590556;31;34245;-75
2022/11/17 00:56:09;;;;;;;;;;;;;;;7.47;100.00;98924.28;5590547;31;34572;-75
2022/11/17 00:59:16;;;;;;;;;;;;;;;7.59;100.00;98919.37;5590454;31;34337;-75
2022/11/17 01:02:24;;;;;;;;;;;;;;;7.67;100.00;98916.63;5590406;31;34766;-74
2022/11/17 01:05:32;;;;;;;;;;;;;;;7.59;100.00;98914.09;5590348;31;34628;-74
2022/11/17 01:08:46;;;;;;;;;;;;;;;7.54;100.00;98919.94;5590353;31;34819;-73
2022/11/17 01:11:53;;;;;;;;;;;;;;;7.41;100.00;98910.00;5590324;31;34243;-75
2022/11/17 01:15:00;;;;;;;;;;;;;;;7.43;100.00;98912.47;5576914;31;34558;-74
2022/11/17 01:18:09;;;;;;;;;;;;;;;7.40;100.00;98903.13;5590308;31;34643;-74
2022/11/17 01:21:19;;;;;;;;;;;;;;;7.32;100.00;98890.00;5590158;31;34761;-74
2022/11/17 01:24:26;;;;;;;;;;;;;;;7.29;100.00;98886.91;5576299;31;35540;-75
2022/11/17 01:27:33;;;;;;;;;;;;;;;7.25;100.00;98878.56;5590168;31;34908;-73
2022/11/17 01:30:40;;;;;;;;;;;;;;;7.29;100.00;98874.56;5576092;31;34995;-74
2022/11/17 01:33:46;;;;;;;;;;;;;;;7.43;100.00;98880.81;5590398;31;34432;-75
2022/11/17 01:40:19;;;;;;;;;;;;;;;7.36;100.00;98879.91;5590105;31;34873;-74
2022/11/17 01:43:46;;;;;;;;;;;;;;;7.39;100.00;98879.56;5590018;31;34836;-74
2022/11/17 01:46:56;;;;;;;;;;;;;;;7.35;100.00;98879.09;5575862;31;34274;-74
2022/11/17 01:50:08;;;;;;;;;;;;;;;7.34;100.00;98885.38;5590002;31;34323;-72
2022/11/17 01:53:18;;;;;;;;;;;;;;;7.28;100.00;98878.19;5589888;31;34463;-75
2022/11/17 01:56:28;;;;;;;;;;;;;;;7.31;100.00;98877.03;5575854;31;35160;-74
2022/11/17 01:59:36;;;;;;;;;;;;;;;7.26;100.00;98889.94;5576837;31;34016;-74
2022/11/17 02:02:43;;;;;;;;;;;;;;;7.26;100.00;98903.91;5575741;31;32861;-74
2022/11/17 02:05:54;;;;;;;;;;;;;;;7.29;100.00;98900.94;5590310;31;34198;-75
2022/11/17 02:09:02;;;;;;;;;;;;;;;7.30;100.00;98904.37;5589889;31;34220;-75
2022/11/17 02:12:12;;;;;;;;;;;;;;;7.26;100.00;98906.56;5589823;31;34223;-75
2022/11/17 02:15:21;;;;;;;;;;;;;;;7.32;100.00;98899.72;5575563;31;35417;-74
2022/11/17 02:18:28;;;;;;;;;;;;;;;7.29;100.00;98906.22;5589695;31;34779;-75
2022/11/17 02:21:41;;;;;;;;;;;;;;;7.22;100.00;98907.09;5575494;31;34488;-75
2022/11/17 02:24:50;;;;;;;;;;;;;;;7.20;100.00;98898.56;5589586;31;34549;-74
2022/11/17 02:28:39;;;;;;;;;;;;;;;7.29;100.00;98895.66;5575351;31;32868;-74
2022/11/17 02:31:48;;;;;;;;;;;;;;;7.32;100.00;98895.28;5510463;32;34424;-74
2022/11/17 02:35:18;;;;;;;;;;;;;;;7.35;100.00;98899.38;5512864;31;34227;-74
2022/11/17 02:38:29;;;;;;;;;;;;;;;7.34;100.00;98895.94;5589488;31;34417;-74
2022/11/17 02:41:52;;;;;;;;;;;;;;;7.36;100.00;98891.28;5589436;31;34836;-75
2022/11/17 02:45:02;;;;;;;;;;;;;;;7.34;100.00;98879.28;5575620;31;34756;-74
2022/11/17 02:48:10;;;;;;;;;;;;;;;7.24;100.00;98876.09;5589309;31;34614;-74
2022/11/17 02:51:22;;;;;;;;;;;;;;;7.27;100.00;98878.34;5589301;31;33813;-75
2022/11/17 02:54:30;;;;;;;;;;;;;;;7.33;100.00;98865.28;5589222;31;34291;-74
2022/11/17 02:57:38;;;;;;;;;;;;;;;7.32;100.00;98873.34;5575563;31;34465;-74
2022/11/17 03:01:07;;;;;;;;;;;;;;;7.29;100.00;98876.38;5589121;31;34756;-75
2022/11/17 03:04:29;;;;;;;;;;;;;;;7.26;100.00;98856.44;5575637;31;34831;-75
2022/11/17 03:07:41;;;;;;;;;;;;;;;7.13;100.00;98864.19;5589365;31;34346;-75
2022/11/17 03:11:03;;;;;;;;;;;;;;;7.18;100.00;98877.66;5588905;31;34251;-75
2022/11/17 03:14:19;;;;;;;;;;;;;;;7.24;100.00;98884.84;5575830;31;32767;-75
2022/11/17 03:17:30;;;;;;;;;;;;;;;7.21;100.00;98865.94;5591285;31;34624;-74
2022/11/17 03:20:43;;;;;;;;;;;;;;;7.10;100.00;98855.84;5591269;31;34540;-74
2022/11/17 03:24:14;;;;;;;;;;;;;;;6.97;100.00;98844.09;5591312;31;34401;-75
2022/11/17 03:27:34;;;;;;;;;;;;;;;6.92;100.00;98843.81;5568033;31;34336;-75
2022/11/17 03:30:43;;;;;;;;;;;;;;;6.73;100.00;98839.09;5591176;31;35103;-74
2022/11/17 03:33:53;;;;;;;;;;;;;;;6.61;100.00;98837.91;5591213;31;34776;-75
2022/11/17 03:37:02;;;;;;;;;;;;;;;6.59;100.00;98833.78;5591190;31;34425;-74
2022/11/17 03:40:10;;;;;;;;;;;;;;;6.51;100.00;98838.16;5591138;31;34754;-75
2022/11/17 03:43:20;;;;;;;;;;;;;;;6.48;100.00;98848.25;5577285;31;34216;-74
2022/11/17 03:46:28;;;;;;;;;;;;;;;6.54;100.00;98852.78;5591195;31;34179;-74
2022/11/17 03:49:38;;;;;;;;;;;;;;;6.57;100.00;98862.16;5591172;31;34286;-75
2022/11/17 03:52:49;;;;;;;;;;;;;;;6.50;100.00;98878.66;5591170;31;34893;-75
2022/11/17 03:56:06;;;;;;;;;;;;;;;6.48;100.00;98877.22;5591107;31;34975;-75
2022/11/17 03:59:21;;;;;;;;;;;;;;;6.51;100.00;98895.31;5591013;31;34709;-75
2022/11/17 04:02:27;;;;;;;;;;;;;;;6.49;100.00;98889.38;5590908;31;34424;-74
2022/11/17 04:05:36;;;;;;;;;;;;;;;6.49;100.00;98898.09;5590961;31;34547;-75
2022/11/17 04:08:43;;;;;;;;;;;;;;;6.45;100.00;98902.09;5576875;31;35111;-74
2022/11/17 04:15:55;;;;;;;;;;;;;;;6.46;100.00;98900.28;5576939;31;34860;-74
2022/11/17 04:18:58;;;;;;;;;;;;;;;6.43;100.00;98895.37;5590772;31;34789;-73
2022/11/17 04:22:07;;;;;;;;;;;;;;;6.54;100.00;98890.50;5590748;31;34307;-74
2022/11/17 04:28:35;;;;;;;;;;;;;;;6.50;100.00;98883.94;5576444;31;34331;-73
2022/11/17 04:28:44;;;;;;;;;;;;;;;6.51;100.00;98885.59;5576651;31;34182;-73
2022/11/17 04:31:51;;;;;;;;;;;;;;;6.51;100.00;98893.50;5576815;31;35756;-74
2022/11/17 04:35:00;;;;;;;;;;;;;;;6.45;100.00;98893.38;5590564;31;34513;-74
2022/11/17 04:38:08;;;;;;;;;;;;;;;6.38;100.00;98889.81;5590657;31;34373;-74
2022/11/17 04:44:40;;;;;;;;;;;;;;;6.48;100.00;98896.50;5576497;31;33444;-74
2022/11/17 04:47:48;;;;;;;;;;;;;;;6.51;100.00;98888.22;5590459;31;34350;-75
2022/11/17 04:50:56;;;;;;;;;;;;;;;6.52;100.00;98892.50;5590567;31;34626;-74
2022/11/17 04:54:03;;;;;;;;;;;;;;;6.52;100.00;98894.31;5590387;31;34819;-74
2022/11/17 04:57:11;;;;;;;;;;;;;;;6.71;100.00;98909.63;5590430;31;34646;-73
2022/11/17 05:00:17;;;;;;;;;;;;;;;6.77;100.00;98919.44;5576855;31;34110;-74
2022/11/17 05:03:26;;;;;;;;;;;;;;;6.75;100.00;98921.44;5577394;31;34283;-74
2022/11/17 05:06:32;;;;;;;;;;;;;;;6.80;100.00;98920.91;5590258;31;34557;-74
2022/11/17 05:09:41;;;;;;;;;;;;;;;6.77;100.00;98916.00;5590425;31;34306;-74
2022/11/17 05:19:41;;;;;;;;;;;;;;;6.79;100.00;98929.78;5590189;31;34668;-74
2022/11/17 05:26:13;;;;;;;;;;;;;;;6.85;100.00;98924.63;5590206;31;34433;-74
2022/11/17 05:29:20;;;;;;;;;;;;;;;6.86;100.00;98917.56;5590125;31;34303;-74
2022/11/17 05:32:25;;;;;;;;;;;;;;;6.87;100.00;98919.19;5590286;31;34251;-74
2022/11/17 05:35:30;;;;;;;;;;;;;;;6.85;100.00;98929.09;5590071;31;34883;-74
2022/11/17 05:38:36;;;;;;;;;;;;;;;6.88;100.00;98929.53;5589724;31;34448;-74
2022/11/17 05:41:46;;;;;;;;;;;;;;;6.87;100.00;98924.47;5576868;31;34278;-73
2022/11/17 05:44:53;;;;;;;;;;;;;;;6.81;100.00;98909.38;5590061;31;34977;-73
2022/11/17 05:47:59;;;;;;;;;;;;;;;6.77;100.00;98921.25;5589987;31;34419;-74
2022/11/17 05:51:03;;;;;;;;;;;;;;;6.87;100.00;98927.09;5589758;31;34301;-74
2022/11/17 05:54:09;;;;;;;;;;;;;;;6.84;100.00;98925.63;5589730;31;34163;-73
2022/11/17 05:57:16;;;;;;;;;;;;;;;6.84;100.00;98933.53;5576071;31;35343;-73
2022/11/17 06:00:21;;;;;;;;;;;;;;;6.83;100.00;98941.63;5563105;31;33344;-73
2022/11/17 06:03:31;;;;;;;;;;;;;;;6.83;100.00;98945.06;5589439;31;34252;-74
2022/11/17 06:06:37;;;;;;;;;;;;;;;6.90;100.00;98948.66;5589722;31;35098;-72
2022/11/17 06:09:41;;;;;;;;;;;;;;;6.99;100.00;98955.47;5589750;31;35169;-73
2022/11/17 06:12:44;;;;;;;;;;;;;;;6.93;100.00;98958.81;5575680;31;34705;-72
2022/11/17 06:15:48;;;;;;;;;;;;;;;7.05;100.00;98959.22;5575721;31;34216;-73
2022/11/17 06:19:00;;;;;;;;;;;;;;;7.08;100.00;98958.84;5589766;31;34332;-73
2022/11/17 06:22:06;;;;;;;;;;;;;;;6.96;100.00;98955.84;5589499;31;34263;-74
2022/11/17 06:25:18;;;;;;;;;;;;;;;7.09;100.00;98954.38;5589388;31;34176;-73
2022/11/17 06:28:23;;;;;;;;;;;;;;;7.01;100.00;98947.41;5588970;31;34847;-73
2022/11/17 06:31:31;;;;;;;;;;;;;;;6.94;100.00;98963.09;5589250;31;34970;-73
2022/11/17 06:34:36;;;;;;;;;;;;;;;7.08;100.00;98961.47;5575455;31;34445;-73
2022/11/17 06:37:39;;;;;;;;;;;;;;;7.09;100.00;98951.75;5589275;31;34653;-73
2022/11/17 06:40:42;;;;;;;;;;;;;;;7.18;100.00;98950.66;5589025;31;34365;-73
2022/11/17 06:43:47;;;;;;;;;;;;;;;7.18;100.00;98950.66;5589232;31;34528;-73
2022/11/17 06:46:52;;;;;;;;;;;;;;;7.10;100.00;98958.66;5574450;31;34540;-72
2022/11/17 06:49:55;;;;;;;;;;;;;;;6.97;100.00;98957.47;5587474;31;34323;-73
2022/11/17 06:52:59;;;;;;;;;;;;;;;6.90;100.00;98964.47;5589384;31;34330;-73
2022/11/17 06:56:10;;;;;;;;;;;;;;;6.87;100.00;98956.87;5588379;31;34943;-73
2022/11/17 06:59:14;;;;;;;;;;;;;;;6.81;100.00;98962.06;5588379;31;34263;-74
2022/11/17 07:02:17;;;;;;;;;;;;;;;6.77;100.00;98969.53;5588552;31;34168;-73
2022/11/17 07:05:20;;;;;;;;;;;;;;;6.85;100.00;98966.00;5588514;31;34252;-73
2022/11/17 07:08:25;;;;;;;;;;;;;;;6.87;100.00;98975.34;5573800;31;33867;-73
2022/11/17 07:11:29;;;;;;;;;;;;;;;7.06;100.00;98975.84;5574183;31;34994;-73
2022/11/17 07:14:32;;;;;;;;;;;;;;;7.05;100.00;98974.22;5574302;31;32713;-73
2022/11/17 07:17:36;;;;;;;;;;;;;;;7.16;100.00;98969.34;5574516;31;33357;-73
2022/11/17 07:20:39;;;;;;;;;;;;;;;7.18;100.00;98972.59;5560500;31;34735;-73
2022/11/17 07:23:43;;;;;;;;;;;;;;;7.32;100.00;98969.16;5573752;31;35281;-73
2022/11/17 07:26:46;;;;;;;;;;;;;;;7.63;100.00;98970.78;5574300;31;34673;-73
2022/11/17 07:29:49;;;;;;;;;;;;;;;7.72;100.00;98970.50;5574117;31;32914;-73
2022/11/17 07:32:53;;;;;;;;;;;;;;;7.77;100.00;98962.84;5574583;31;34259;-74
2022/11/17 07:36:03;;;;;;;;;;;;;;;7.90;100.00;98969.28;5574165;31;34266;-73
2022/11/17 07:39:08;;;;;;;;;;;;;;;7.85;100.00;98967.19;5587957;31;34812;-74
2022/11/17 07:42:12;;;;;;;;;;;;;;;7.84;100.00;98957.66;5587845;31;34873;-74
2022/11/17 07:45:15;;;;;;;;;;;;;;;8.02;100.00;98968.62;5588420;31;34653;-73
2022/11/17 07:48:19;;;;;;;;;;;;;;;8.12;100.00;98973.63;5587919;31;34587;-73
2022/11/17 07:51:23;;;;;;;;;;;;;;;8.28;100.00;98976.00;5587630;31;34301;-74
2022/11/17 07:54:27;;;;;;;;;;;;;;;8.23;100.00;98973.13;5573941;31;34437;-73
2022/11/17 07:57:30;;;;;;;;;;;;;;;8.12;100.00;98973.63;5573068;31;34129;-73
2022/11/17 08:00:33;;;;;;;;;;;;;;;8.40;100.00;98982.50;5589443;31;34284;-73
2022/11/17 08:03:37;;;;;;;;;;;;;;;8.38;100.00;98970.47;5576800;31;34201;-73
2022/11/17 08:06:40;;;;;;;;;;;;;;;8.54;100.00;98970.22;5591161;31;34186;-73
2022/11/17 08:09:44;;;;;;;;;;;;;;;8.76;100.00;98977.16;5590833;31;34895;-73
2022/11/17 08:12:49;;;;;;;;;;;;;;;8.93;100.00;98982.97;5590354;31;34412;-73
2022/11/17 08:15:57;;;;;;;;;;;;;;;8.88;100.00;98972.97;5576864;31;34787;-73
2022/11/17 08:19:03;;;;;;;;;;;;;;;8.95;100.00;98986.25;5576342;31;34024;-72
2022/11/17 08:22:08;;;;;;;;;;;;;;;9.11;100.00;98993.91;5576644;31;33489;-73
2022/11/17 08:25:12;;;;;;;;;;;;;;;9.08;100.00;98989.81;5590443;31;34921;-72
2022/11/17 08:28:17;;;;;;;;;;;;;;;9.00;100.00;98991.78;5576137;31;34834;-72
2022/11/17 08:31:21;;;;;;;;;;;;;;;8.96;100.00;98990.50;5590147;31;34243;-72
2022/11/17 08:34:24;;;;;;;;;;;;;;;8.92;100.00;99007.78;5563451;31;34628;-72
2022/11/17 08:37:29;;;;;;;;;;;;;;;8.90;100.00;99000.06;5576269;31;34975;-72
2022/11/17 08:40:33;;;;;;;;;;;;;;;8.86;100.00;99004.06;5563456;31;35225;-73
2022/11/17 08:43:36;;;;;;;;;;;;;;;8.73;100.00;99007.41;5590165;31;35032;-72
2022/11/17 08:46:39;;;;;;;;;;;;;;;8.66;100.00;99011.03;5576388;31;32807;-72
2022/11/17 08:49:45;;;;;;;;;;;;;;;8.79;100.00;98999.75;5590429;31;34881;-72
2022/11/17 08:52:51;;;;;;;;;;;;;;;8.92;100.00;99008.59;5576418;31;34941;-72
2022/11/17 08:55:56;;;;;;;;;;;;;;;9.00;100.00;99019.06;5590075;31;34325;-71
2022/11/17 08:59:01;;;;;;;;;;;;;;;9.04;100.00;99028.25;5590102;31;34875;-71
2022/11/17 09:02:04;;;;;;;;;;;;;;;8.91;100.00;99024.66;5575872;31;34355;-72
2022/11/17 09:05:07;;;;;;;;;;;;;;;8.80;100.00;99031.28;5576120;31;34354;-71
2022/11/17 09:08:13;;;;;;;;;;;;;;;8.62;100.00;99025.59;5576314;31;33084;-73
2022/11/17 09:11:37;;;;;;;;;;;;;;;8.74;100.00;99024.09;5564858;31;33080;-73
2022/11/17 09:14:42;;;;;;;;;;;;;;;8.83;100.00;99030.91;5589774;31;34533;-72
2022/11/17 09:17:46;;;;;;;;;;;;;;;8.86;100.00;99033.16;5576164;31;35431;-72
2022/11/17 09:20:50;;;;;;;;;;;;;;;8.78;100.00;99040.41;5576402;31;34673;-72
2022/11/17 09:23:53;;;;;;;;;;;;;;;8.74;100.00;99045.25;5563051;31;33194;-72
2022/11/17 09:26:56;;;;;;;;;;;;;;;8.78;100.00;99043.03;5589770;31;34819;-73
2022/11/17 09:29:59;;;;;;;;;;;;;;;8.78;100.00;99051.81;5589755;31;34427;-72
2022/11/17 09:33:02;;;;;;;;;;;;;;;8.81;100.00;99048.75;5576133;31;33731;-73
2022/11/17 09:36:06;;;;;;;;;;;;;;;8.70;100.00;99041.34;5575936;31;33999;-72
2022/11/17 09:39:11;;;;;;;;;;;;;;;8.76;100.00;99047.72;5576165;31;34219;-73
2022/11/17 09:42:17;;;;;;;;;;;;;;;8.96;100.00;99051.34;5576013;31;35074;-72
2022/11/17 09:45:23;;;;;;;;;;;;;;;8.94;100.00;99042.81;5589417;31;34309;-72
2022/11/17 09:48:35;;;;;;;;;;;;;;;9.00;100.00;99036.75;5575888;31;34328;-72
2022/11/17 09:51:57;;;;;;;;;;;;;;;9.07;100.00;99030.50;5589909;31;34189;-72
2022/11/17 09:55:07;;;;;;;;;;;;;;;9.15;100.00;99021.59;5575727;31;34075;-72
2022/11/17 09:58:29;;;;;;;;;;;;;;;9.12;100.00;99022.00;5575490;31;34300;-72
2022/11/17 10:01:33;;;;;;;;;;;;;;;9.12;100.00;99019.34;5575644;31;35704;-72
2022/11/17 10:04:36;;;;;;;;;;;;;;;9.16;100.00;99017.94;5589225;31;34314;-72
2022/11/17 10:07:45;;;;;;;;;;;;;;;9.18;100.00;99009.84;5561898;31;34238;-72
2022/11/17 10:10:50;;;;;;;;;;;;;;;9.31;100.00;99008.09;5589277;31;34289;-73
2022/11/17 10:13:53;;;;;;;;;;;;;;;9.30;100.00;99014.38;5589162;31;34299;-73
2022/11/17 10:16:58;;;;;;;;;;;;;;;9.40;100.00;99014.06;5589423;31;34382;-74
2022/11/17 10:20:13;;;;;;;;;;;;;;;9.35;100.00;99013.81;5574513;31;33043;-73
2022/11/17 10:23:18;;;;;;;;;;;;;;;9.50;100.00;99025.94;5589239;31;34932;-72
2022/11/17 10:26:22;;;;;;;;;;;;;;;9.50;100.00;99009.22;5589144;31;34883;-72
2022/11/17 10:29:26;;;;;;;;;;;;;;;9.53;100.00;99014.97;5574918;31;35123;-71
2022/11/17 10:32:29;;;;;;;;;;;;;;;9.46;100.00;99011.47;5575221;31;34084;-71
2022/11/17 10:35:34;;;;;;;;;;;;;;;9.39;100.00;99015.88;5589218;31;34944;-71
2022/11/17 10:38:42;;;;;;;;;;;;;;;9.39;100.00;99013.22;5589248;31;34702;-72
2022/11/17 10:41:49;;;;;;;;;;;;;;;9.65;100.00;99019.72;5562526;31;34203;-72
2022/11/17 10:44:54;;;;;;;;;;;;;;;9.68;100.00;99025.47;5589207;31;34832;-74
2022/11/17 10:48:06;;;;;;;;;;;;;;;9.69;100.00;99023.59;5589075;31;34443;-72
2022/11/17 10:51:15;;;;;;;;;;;;;;;9.90;100.00;99027.00;5589246;31;34661;-71
2022/11/17 10:54:22;;;;;;;;;;;;;;;9.86;100.00;99027.59;5589123;31;34122;-73
2022/11/17 10:57:25;;;;;;;;;;;;;;;9.92;100.00;99029.47;5588771;31;34172;-72
2022/11/17 11:00:30;;;;;;;;;;;;;;;10.09;100.00;99032.56;5576455;31;33134;-74
2022/11/17 11:03:35;;;;;;;;;;;;;;;10.11;100.00;99039.31;5562409;31;34305;-73
2022/11/17 11:06:39;;;;;;;;;;;;;;;10.22;100.00;99032.66;5588749;31;34334;-73
2022/11/17 11:10:07;;;;;;;;;;;;;;;10.14;100.00;99035.44;5588576;31;34366;-73
2022/11/17 11:13:19;;;;;;;;;;;;;;;10.11;100.00;99033.22;5566836;31;32856;-73
2022/11/17 11:16:24;;;;;;;;;;;;;;;9.89;100.00;99037.78;5562062;31;32752;-73
2022/11/17 11:19:28;;;;;;;;;;;;;;;10.17;100.00;99032.44;5574803;31;34480;-72
2022/11/17 11:22:30;;;;;;;;;;;;;;;10.14;100.00;99030.97;5561534;31;34826;-72
2022/11/17 11:25:39;;;;;;;;;;;;;;;10.24;100.00;99030.63;5588136;31;34815;-72
2022/11/17 11:28:53;;;;;;;;;;;;;;;10.45;100.00;99031.34;5588217;31;34789;-72
2022/11/17 11:32:22;;;;;;;;;;;;;;;10.80;100.00;99031.19;5574421;31;33867;-72
2022/11/17 11:35:38;;;;;;;;;;;;;;;10.78;100.00;99034.06;5589629;31;34429;-72
2022/11/17 11:38:51;;;;;;;;;;;;;;;10.86;100.00;99033.03;5591006;31;34257;-72
2022/11/17 11:42:06;;;;;;;;;;;;;;;10.85;100.00;99039.34;5577186;31;34836;-72
2022/11/17 11:45:13;;;;;;;;;;;;;;;10.70;100.00;99044.00;5577199;31;35213;-71
2022/11/17 11:48:26;;;;;;;;;;;;;;;10.78;100.00;99036.69;5576422;31;33438;-72
2022/11/17 11:51:34;;;;;;;;;;;;;;;10.72;100.00;99039.34;5590719;31;35028;-72
2022/11/17 11:54:49;;;;;;;;;;;;;;;10.29;100.00;99036.97;5590920;31;34208;-72
2022/11/17 11:58:19;;;;;;;;;;;;;;;10.22;100.00;99035.31;5590834;31;34412;-71
2022/11/17 12:01:23;;;;;;;;;;;;;;;10.73;100.00;99025.87;5575264;31;34168;-72
2022/11/17 12:04:35;;;;;;;;;;;;;;;10.55;100.00;99027.47;5590612;31;34269;-71
2022/11/17 12:07:49;;;;;;;;;;;;;;;10.79;100.00;99018.97;5590809;31;34906;-72
2022/11/17 12:10:57;;;;;;;;;;;;;;;10.94;100.00;99027.50;5590494;31;34337;-71
2022/11/17 12:14:00;;;;;;;;;;;;;;;10.95;100.00;99026.50;5590132;31;34935;-71
2022/11/17 12:17:03;;;;;;;;;;;;;;;11.00;100.00;99028.53;5576555;31;32748;-71
2022/11/17 12:20:24;;;;;;;;;;;;;;;10.86;100.00;99038.34;5590645;31;34803;-71
2022/11/17 12:23:38;;;;;;;;;;;;;;;11.07;99.27;99042.66;5590429;31;34331;-71
2022/11/17 12:26:40;;;;;;;;;;;;;;;11.29;97.87;99028.97;5563627;31;35636;-71
2022/11/17 12:29:44;;;;;;;;;;;;;;;11.34;97.60;99023.84;5590337;31;34904;-71
2022/11/17 12:32:50;;;;;;;;;;;;;;;11.33;99.05;99030.19;5590494;31;34645;-73
2022/11/17 12:36:12;;;;;;;;;;;;;;;11.24;100.00;99044.69;5590473;31;34210;-71
2022/11/17 12:39:33;;;;;;;;;;;;;;;10.99;100.00;99038.34;5563342;31;34369;-71
2022/11/17 12:43:00;;;;;;;;;;;;;;;11.04;100.00;99045.69;5576183;31;34034;-70
2022/11/17 12:46:12;;;;;;;;;;;;;;;11.09;99.98;99048.56;5589243;31;34246;-72
2022/11/17 12:49:26;;;;;;;;;;;;;;;11.33;100.00;99050.59;5576668;31;34100;-72
2022/11/17 12:52:34;;;;;;;;;;;;;;;11.85;97.17;99041.78;5590472;31;34334;-71
2022/11/17 12:55:41;;;;;;;;;;;;;;;11.67;98.07;99039.75;5590352;31;34776;-71
2022/11/17 12:58:47;;;;;;;;;;;;;;;11.17;99.38;99043.06;5576770;31;34804;-71
2022/11/17 13:02:09;;;;;;;;;;;;;;;11.08;99.96;99042.47;5576063;31;34425;-71
2022/11/17 13:05:18;;;;;;;;;;;;;;;11.02;100.00;99034.47;5590261;31;34848;-72
2022/11/17 13:08:22;;;;;;;;;;;;;;;11.07;100.00;99042.66;5590059;31;34575;-71
2022/11/17 13:11:25;;;;;;;;;;;;;;;10.87;100.00;99035.50;5590250;31;34216;-71
2022/11/17 13:14:29;;;;;;;;;;;;;;;10.39;100.00;99039.25;5576342;31;34450;-72
2022/11/17 13:17:37;;;;;;;;;;;;;;;10.74;100.00;99042.63;5575752;31;32786;-72
2022/11/17 13:20:40;;;;;;;;;;;;;;;11.08;100.00;99055.72;5576104;31;34142;-71
2022/11/17 13:23:43;;;;;;;;;;;;;;;10.95;100.00;99044.25;5576155;31;35602;-72
2022/11/17 13:26:56;;;;;;;;;;;;;;;10.51;100.00;99048.25;5589991;31;35188;-70
2022/11/17 13:30:20;;;;;;;;;;;;;;;10.75;100.00;99055.66;5589585;31;34093;-70
2022/11/17 13:33:23;;;;;;;;;;;;;;;11.16;100.00;99066.13;5590429;31;34260;-71
2022/11/17 13:36:26;;;;;;;;;;;;;;;11.03;99.33;99074.09;5590163;31;34087;-71
2022/11/17 13:39:30;;;;;;;;;;;;;;;10.94;100.00;99071.84;5576067;31;35482;-71
2022/11/17 13:42:33;;;;;;;;;;;;;;;10.84;100.00;99074.88;5576781;31;34909;-70
2022/11/17 13:45:42;;;;;;;;;;;;;;;10.57;100.00;99067.84;5589887;31;34231;-70
2022/11/17 13:48:47;;;;;;;;;;;;;;;10.29;100.00;99065.31;5576467;31;34382;-71
2022/11/17 13:51:53;;;;;;;;;;;;;;;10.07;100.00;99064.56;5575470;31;33316;-71
2022/11/17 13:54:57;;;;;;;;;;;;;;;9.78;100.00;99064.84;5575944;31;34193;-71
2022/11/17 13:58:02;;;;;;;;;;;;;;;9.71;100.00;99071.91;5588737;31;35068;-71
2022/11/17 14:01:09;;;;;;;;;;;;;;;9.56;100.00;99059.59;5589534;31;34889;-70
2022/11/17 14:04:17;;;;;;;;;;;;;;;9.52;100.00;99058.34;5590023;31;34359;-71
2022/11/17 14:07:28;;;;;;;;;;;;;;;9.64;100.00;99061.25;5589823;31;34276;-71
2022/11/17 14:10:33;;;;;;;;;;;;;;;9.66;100.00;99061.06;5589561;31;34235;-70
2022/11/17 14:13:38;;;;;;;;;;;;;;;9.51;100.00;99067.28;5568409;32;34849;-71
2022/11/17 14:16:43;;;;;;;;;;;;;;;9.59;100.00;99063.66;5569689;32;35133;-71
2022/11/17 14:19:48;;;;;;;;;;;;;;;9.61;100.00;99059.00;5568866;32;34260;-71
2022/11/17 14:23:02;;;;;;;;;;;;;;;9.67;100.00;99058.25;5569693;32;34844;-70
2022/11/17 14:26:15;;;;;;;;;;;;;;;9.65;100.00;99060.25;5568848;32;34090;-71
2022/11/17 14:29:19;;;;;;;;;;;;;;;9.59;100.00;99053.91;5568342;32;35611;-70
2022/11/17 14:32:22;;;;;;;;;;;;;;;9.45;100.00;99051.34;5569327;32;34309;-71
2022/11/17 14:35:26;;;;;;;;;;;;;;;9.42;100.00;99049.91;5568505;32;33580;-71
2022/11/17 14:38:29;;;;;;;;;;;;;;;9.45;100.00;99046.06;5569321;32;34333;-71
2022/11/17 14:41:34;;;;;;;;;;;;;;;9.44;100.00;99050.53;5568537;32;34877;-70
2022/11/17 14:44:38;;;;;;;;;;;;;;;9.47;100.00;99055.47;5568502;32;35231;-72
2022/11/17 14:47:43;;;;;;;;;;;;;;;9.48;100.00;99058.94;5569177;32;34304;-71
2022/11/17 14:50:46;;;;;;;;;;;;;;;9.44;100.00;99068.28;5569091;32;34399;-71
2022/11/17 14:53:49;;;;;;;;;;;;;;;9.36;100.00;99060.44;5569044;32;33676;-71
2022/11/17 14:56:52;;;;;;;;;;;;;;;9.29;100.00;99062.25;5568121;32;35152;-71
2022/11/17 14:59:57;;;;;;;;;;;;;;;9.25;100.00;99066.25;5567720;32;36663;-71
2022/11/17 15:03:02;;;;;;;;;;;;;;;9.20;100.00;99069.47;5568040;32;34238;-71
2022/11/17 15:06:08;;;;;;;;;;;;;;;9.21;100.00;99068.47;5568714;32;34843;-70
2022/11/17 15:09:19;;;;;;;;;;;;;;;9.16;100.00;99053.16;5569633;32;34377;-71
2022/11/17 15:12:22;;;;;;;;;;;;;;;9.16;100.00;99060.28;5570515;32;34300;-71
2022/11/17 15:15:27;;;;;;;;;;;;;;;9.01;100.00;99046.31;5590810;31;34644;-71
2022/11/17 15:18:32;;;;;;;;;;;;;;;8.94;100.00;99048.09;5590259;31;34866;-71
2022/11/17 15:21:37;;;;;;;;;;;;;;;8.94;100.00;99058.66;5576810;31;35692;-71
2022/11/17 15:24:42;;;;;;;;;;;;;;;9.00;100.00;99064.03;5577106;31;34588;-71
2022/11/17 15:27:46;;;;;;;;;;;;;;;9.05;100.00;99061.59;5576755;31;34111;-71
2022/11/17 15:30:51;;;;;;;;;;;;;;;9.07;100.00;99072.00;5563635;31;33964;-70
2022/11/17 15:33:55;;;;;;;;;;;;;;;9.05;100.00;99068.75;5591010;31;34211;-71
2022/11/17 15:37:01;;;;;;;;;;;;;;;9.02;100.00;99063.81;5564390;31;34691;-70
2022/11/17 15:40:06;;;;;;;;;;;;;;;8.91;100.00;99062.50;5564205;31;33983;-70
2022/11/17 15:43:11;;;;;;;;;;;;;;;8.80;100.00;99065.66;5576491;31;34322;-71
2022/11/17 15:46:18;;;;;;;;;;;;;;;8.77;100.00;99054.63;5590340;31;34204;-70
2022/11/17 15:49:24;;;;;;;;;;;;;;;8.69;100.00;99059.03;5575736;31;35049;-71
2022/11/17 15:52:28;;;;;;;;;;;;;;;8.59;100.00;99052.41;5576447;31;34365;-70
2022/11/17 15:55:54;;;;;;;;;;;;;;;8.56;100.00;99047.50;5576259;31;34990;-70
2022/11/17 15:59:03;;;;;;;;;;;;;;;8.58;100.00;99053.41;5590021;31;34860;-72
2022/11/17 16:02:09;;;;;;;;;;;;;;;8.64;100.00;99045.56;5590388;31;34725;-71
2022/11/17 16:05:14;;;;;;;;;;;;;;;8.65;100.00;99044.56;5576424;31;35131;-71
2022/11/17 16:08:18;;;;;;;;;;;;;;;8.65;100.00;99043.75;5589610;31;34321;-70
2022/11/17 16:11:25;;;;;;;;;;;;;;;8.69;100.00;99040.53;5576145;31;34394;-70
2022/11/17 16:14:30;;;;;;;;;;;;;;;8.67;100.00;99029.31;5590185;31;34981;-70
2022/11/17 16:17:36;;;;;;;;;;;;;;;8.68;100.00;99028.31;5590567;31;34231;-72
2022/11/17 16:20:41;;;;;;;;;;;;;;;8.78;100.00;99032.47;5576617;31;34226;-71
2022/11/17 16:23:51;;;;;;;;;;;;;;;8.84;100.00;99042.31;5576248;31;34456;-71
2022/11/17 16:26:58;;;;;;;;;;;;;;;8.85;100.00;99033.37;5563899;31;34963;-71
2022/11/17 16:30:02;;;;;;;;;;;;;;;8.84;100.00;99026.44;5576565;31;33972;-72
2022/11/17 16:33:11;;;;;;;;;;;;;;;8.92;100.00;99026.28;5590089;31;34954;-72
2022/11/17 16:36:18;;;;;;;;;;;;;;;8.90;100.00;99034.44;5590207;31;34338;-72
2022/11/17 16:39:25;;;;;;;;;;;;;;;8.91;100.00;99037.88;5590112;31;34857;-71
2022/11/17 16:42:31;;;;;;;;;;;;;;;8.95;100.00;99049.75;5576427;31;32648;-71
2022/11/17 16:45:40;;;;;;;;;;;;;;;8.91;100.00;99074.91;5576961;31;34800;-71
2022/11/17 16:48:47;;;;;;;;;;;;;;;8.91;100.00;99075.72;5576446;31;34809;-71